Etusivu
METAR-TAF:

METAR-TAF

Lentoasemat :

Teheran, Iran

Leveyspiiri: 35-41N, Pituuspiiri: 051-21E, korkeus merenpinnasta: 1204 m

Tämänhetkinen sää

Tämä raportti tehtiin 48 minuuttia sitten, kello 21.00 UTC
Tuuli 4 kn lännestä/luoteesta
Lämpötila 4°C
Kosteus 41%
Ilmanpaine 1024 hPa
Näkyvyys 10 km tai enemmän
ei pilviä alle 1500 m:ssä eikä cumulonimbus-pilviä

METAR: OIII 122100Z 30004KT CAVOK 04/M08 Q1024 A3025 NOSIG

Aika: 01:18 (21:48 UTC)

Sääennuste

Tämä raportti tehtiin 4 tuntia ja 18 minuuttia sitten, kello 17.30 UTC
Ennuste voimassa 12. päivästä klo 18 UTC - 13. päivään klo 24 UTC
Tuuli 6 kn lännestä/luoteesta
Näkyvyys: 8000 m

TAF: OIII 121730Z 1218/1324 30003MPS 8000 NSC

Säähavainnot ja -ennusteet yli 4000 lentoasemalta (METAR- ja TAF-raportit).

Käytössä olevat sääasemat on merkitty karttaan keltaisilla ja punaisilla pisteillä.

Aseta hiiri pisteen päälle nähdäksesi sääaseman nimen.

Klikkaa sitten nähdäksesi säähavainnot ja -ennusteet.

Kartan vaihtaminen: klikkaa mustalla rastilla varustettuja vihreitä pisteitä, niin voit zoomata sisään; viivalla varustettua vihreää pistettä, niin voit zoomata ulos tai vihreitä nuolia, niin pääset viereisille kartoille.


METAR-TAF: